sensor_id;sensor_type;location;lat;lon;timestamp;P1;durP1;ratioP1;P2;durP2;ratioP2
39600;SDS011;25297;44.758;11.310;2023-02-21T00:00:26;98.63;;;51.85;;
39600;SDS011;25297;44.758;11.310;2023-02-21T00:03:10;94.47;;;50.38;;
39600;SDS011;25297;44.758;11.310;2023-02-21T00:05:54;91.45;;;50.95;;
39600;SDS011;25297;44.758;11.310;2023-02-21T00:08:39;92.50;;;49.72;;
39600;SDS011;25297;44.758;11.310;2023-02-21T00:11:23;91.60;;;49.25;;
39600;SDS011;25297;44.758;11.310;2023-02-21T00:14:07;93.55;;;46.13;;
39600;SDS011;25297;44.758;11.310;2023-02-21T00:16:52;101.32;;;52.15;;
39600;SDS011;25297;44.758;11.310;2023-02-21T00:19:36;96.47;;;51.90;;
39600;SDS011;25297;44.758;11.310;2023-02-21T00:22:20;93.60;;;50.40;;
39600;SDS011;25297;44.758;11.310;2023-02-21T00:25:04;97.65;;;51.20;;
39600;SDS011;25297;44.758;11.310;2023-02-21T00:27:48;94.35;;;50.15;;
39600;SDS011;25297;44.758;11.310;2023-02-21T00:30:32;98.30;;;51.10;;
39600;SDS011;25297;44.758;11.310;2023-02-21T00:33:16;102.97;;;50.38;;
39600;SDS011;25297;44.758;11.310;2023-02-21T00:36:00;105.85;;;51.80;;
39600;SDS011;25297;44.758;11.310;2023-02-21T00:38:45;100.80;;;49.00;;
39600;SDS011;25297;44.758;11.310;2023-02-21T00:41:29;103.78;;;51.38;;
39600;SDS011;25297;44.758;11.310;2023-02-21T00:44:13;92.50;;;48.70;;
39600;SDS011;25297;44.758;11.310;2023-02-21T00:46:57;94.68;;;50.38;;
39600;SDS011;25297;44.758;11.310;2023-02-21T00:49:41;97.40;;;50.50;;
39600;SDS011;25297;44.758;11.310;2023-02-21T00:52:25;93.00;;;49.80;;
39600;SDS011;25297;44.758;11.310;2023-02-21T00:55:09;107.68;;;51.95;;
39600;SDS011;25297;44.758;11.310;2023-02-21T00:57:53;103.80;;;49.53;;
39600;SDS011;25297;44.758;11.310;2023-02-21T01:00:37;105.15;;;51.75;;
39600;SDS011;25297;44.758;11.310;2023-02-21T01:03:21;95.72;;;51.22;;
39600;SDS011;25297;44.758;11.310;2023-02-21T01:06:09;93.72;;;49.45;;
39600;SDS011;25297;44.758;11.310;2023-02-21T01:08:55;94.60;;;49.22;;
39600;SDS011;25297;44.758;11.310;2023-02-21T01:11:39;99.35;;;50.58;;
39600;SDS011;25297;44.758;11.310;2023-02-21T01:14:23;101.20;;;50.13;;
39600;SDS011;25297;44.758;11.310;2023-02-21T01:17:07;104.00;;;52.25;;
39600;SDS011;25297;44.758;11.310;2023-02-21T01:19:51;95.43;;;49.47;;
39600;SDS011;25297;44.758;11.310;2023-02-21T01:22:37;96.50;;;48.13;;
39600;SDS011;25297;44.758;11.310;2023-02-21T01:25:21;95.40;;;48.97;;
39600;SDS011;25297;44.758;11.310;2023-02-21T01:28:06;98.53;;;50.92;;
39600;SDS011;25297;44.758;11.310;2023-02-21T01:30:50;97.70;;;49.80;;
39600;SDS011;25297;44.758;11.310;2023-02-21T01:33:35;94.93;;;51.17;;
39600;SDS011;25297;44.758;11.310;2023-02-21T01:36:21;99.72;;;50.33;;
39600;SDS011;25297;44.758;11.310;2023-02-21T01:39:05;97.85;;;49.83;;
39600;SDS011;25297;44.758;11.310;2023-02-21T01:41:49;91.18;;;46.55;;
39600;SDS011;25297;44.758;11.310;2023-02-21T01:44:37;84.72;;;47.83;;
39600;SDS011;25297;44.758;11.310;2023-02-21T01:47:24;91.32;;;47.40;;
39600;SDS011;25297;44.758;11.310;2023-02-21T01:50:20;93.63;;;48.17;;
39600;SDS011;25297;44.758;11.310;2023-02-21T01:53:09;95.88;;;48.67;;
39600;SDS011;25297;44.758;11.310;2023-02-21T01:56:02;98.28;;;50.67;;
39600;SDS011;25297;44.758;11.310;2023-02-21T01:58:47;89.97;;;45.90;;
39600;SDS011;25297;44.758;11.310;2023-02-21T02:01:40;101.95;;;51.33;;
39600;SDS011;25297;44.758;11.310;2023-02-21T02:04:34;94.10;;;47.08;;
39600;SDS011;25297;44.758;11.310;2023-02-21T02:07:18;95.70;;;50.45;;
39600;SDS011;25297;44.758;11.310;2023-02-21T02:10:03;96.18;;;49.55;;
39600;SDS011;25297;44.758;11.310;2023-02-21T02:12:57;94.30;;;49.83;;
39600;SDS011;25297;44.758;11.310;2023-02-21T02:40:32;95.57;;;52.10;;
39600;SDS011;25297;44.758;11.310;2023-02-21T02:43:13;104.43;;;54.08;;
39600;SDS011;25297;44.758;11.310;2023-02-21T02:46:04;96.55;;;51.25;;
39600;SDS011;25297;44.758;11.310;2023-02-21T02:48:35;91.00;;;49.55;;
39600;SDS011;25297;44.758;11.310;2023-02-21T02:51:10;100.90;;;52.53;;
39600;SDS011;25297;44.758;11.310;2023-02-21T02:53:38;104.95;;;54.38;;
39600;SDS011;25297;44.758;11.310;2023-02-21T02:56:05;100.35;;;52.58;;
39600;SDS011;25297;44.758;11.310;2023-02-21T02:58:38;97.05;;;52.15;;
39600;SDS011;25297;44.758;11.310;2023-02-21T03:01:11;100.03;;;51.60;;
39600;SDS011;25297;44.758;11.310;2023-02-21T03:09:17;97.80;;;50.95;;
39600;SDS011;25297;44.758;11.310;2023-02-21T03:12:14;99.60;;;51.70;;
39600;SDS011;25297;44.758;11.310;2023-02-21T03:15:07;102.93;;;51.92;;
39600;SDS011;25297;44.758;11.310;2023-02-21T03:17:39;100.47;;;50.75;;
39600;SDS011;25297;44.758;11.310;2023-02-21T03:20:09;95.28;;;50.75;;
39600;SDS011;25297;44.758;11.310;2023-02-21T03:22:37;105.97;;;52.65;;
39600;SDS011;25297;44.758;11.310;2023-02-21T03:25:06;96.10;;;52.97;;
39600;SDS011;25297;44.758;11.310;2023-02-21T03:27:32;98.32;;;53.85;;
39600;SDS011;25297;44.758;11.310;2023-02-21T03:29:59;98.35;;;52.65;;
39600;SDS011;25297;44.758;11.310;2023-02-21T03:32:45;99.00;;;52.80;;
39600;SDS011;25297;44.758;11.310;2023-02-21T03:35:14;97.40;;;52.90;;
39600;SDS011;25297;44.758;11.310;2023-02-21T03:37:45;97.57;;;51.28;;
39600;SDS011;25297;44.758;11.310;2023-02-21T03:40:20;100.80;;;52.58;;
39600;SDS011;25297;44.758;11.310;2023-02-21T03:42:48;103.60;;;54.67;;
39600;SDS011;25297;44.758;11.310;2023-02-21T03:45:14;99.30;;;53.13;;
39600;SDS011;25297;44.758;11.310;2023-02-21T03:47:40;106.32;;;54.70;;
39600;SDS011;25297;44.758;11.310;2023-02-21T03:50:06;110.72;;;54.40;;
39600;SDS011;25297;44.758;11.310;2023-02-21T03:52:32;92.90;;;48.17;;
39600;SDS011;25297;44.758;11.310;2023-02-21T03:54:58;105.25;;;52.65;;
39600;SDS011;25297;44.758;11.310;2023-02-21T03:57:23;103.38;;;51.38;;
39600;SDS011;25297;44.758;11.310;2023-02-21T03:59:49;97.70;;;50.75;;
39600;SDS011;25297;44.758;11.310;2023-02-21T04:02:15;98.03;;;53.90;;
39600;SDS011;25297;44.758;11.310;2023-02-21T04:04:40;95.35;;;52.35;;
39600;SDS011;25297;44.758;11.310;2023-02-21T04:07:06;98.18;;;51.95;;
39600;SDS011;25297;44.758;11.310;2023-02-21T04:09:32;102.57;;;52.47;;
39600;SDS011;25297;44.758;11.310;2023-02-21T04:11:58;94.25;;;50.08;;
39600;SDS011;25297;44.758;11.310;2023-02-21T04:14:23;99.78;;;51.15;;
39600;SDS011;25297;44.758;11.310;2023-02-21T04:16:49;92.85;;;49.55;;
39600;SDS011;25297;44.758;11.310;2023-02-21T04:19:15;94.90;;;50.35;;
39600;SDS011;25297;44.758;11.310;2023-02-21T04:21:41;96.95;;;49.03;;
39600;SDS011;25297;44.758;11.310;2023-02-21T04:24:07;98.93;;;50.40;;
39600;SDS011;25297;44.758;11.310;2023-02-21T04:26:32;98.80;;;50.40;;
39600;SDS011;25297;44.758;11.310;2023-02-21T04:28:59;94.32;;;49.20;;
39600;SDS011;25297;44.758;11.310;2023-02-21T04:31:25;87.50;;;48.25;;
39600;SDS011;25297;44.758;11.310;2023-02-21T04:33:51;92.68;;;51.70;;
39600;SDS011;25297;44.758;11.310;2023-02-21T04:36:17;92.57;;;50.17;;
39600;SDS011;25297;44.758;11.310;2023-02-21T04:38:42;98.82;;;50.72;;
39600;SDS011;25297;44.758;11.310;2023-02-21T04:41:08;90.80;;;50.15;;
39600;SDS011;25297;44.758;11.310;2023-02-21T04:43:34;94.70;;;50.58;;
39600;SDS011;25297;44.758;11.310;2023-02-21T04:45:59;101.75;;;51.40;;
39600;SDS011;25297;44.758;11.310;2023-02-21T04:48:25;103.10;;;55.25;;
39600;SDS011;25297;44.758;11.310;2023-02-21T04:50:51;102.15;;;53.47;;
39600;SDS011;25297;44.758;11.310;2023-02-21T04:53:16;99.85;;;55.13;;
39600;SDS011;25297;44.758;11.310;2023-02-21T04:55:42;106.13;;;52.60;;
39600;SDS011;25297;44.758;11.310;2023-02-21T04:58:08;101.10;;;53.03;;
39600;SDS011;25297;44.758;11.310;2023-02-21T05:00:34;97.03;;;52.33;;
39600;SDS011;25297;44.758;11.310;2023-02-21T05:02:59;104.15;;;54.42;;
39600;SDS011;25297;44.758;11.310;2023-02-21T05:05:25;96.75;;;54.55;;
39600;SDS011;25297;44.758;11.310;2023-02-21T05:07:51;100.72;;;53.40;;
39600;SDS011;25297;44.758;11.310;2023-02-21T05:10:16;95.78;;;51.70;;
39600;SDS011;25297;44.758;11.310;2023-02-21T05:12:43;95.10;;;51.88;;
39600;SDS011;25297;44.758;11.310;2023-02-21T05:15:09;99.75;;;51.10;;
39600;SDS011;25297;44.758;11.310;2023-02-21T05:17:37;98.10;;;52.60;;
39600;SDS011;25297;44.758;11.310;2023-02-21T05:20:03;99.75;;;52.78;;
39600;SDS011;25297;44.758;11.310;2023-02-21T05:22:35;94.60;;;49.42;;
39600;SDS011;25297;44.758;11.310;2023-02-21T05:25:15;99.15;;;51.22;;
39600;SDS011;25297;44.758;11.310;2023-02-21T05:27:42;97.63;;;51.28;;
39600;SDS011;25297;44.758;11.310;2023-02-21T05:30:09;102.13;;;53.42;;
39600;SDS011;25297;44.758;11.310;2023-02-21T05:32:35;95.10;;;50.15;;
39600;SDS011;25297;44.758;11.310;2023-02-21T05:35:01;94.07;;;49.90;;
39600;SDS011;25297;44.758;11.310;2023-02-21T05:37:27;96.45;;;51.83;;
39600;SDS011;25297;44.758;11.310;2023-02-21T05:39:52;89.03;;;48.50;;
39600;SDS011;25297;44.758;11.310;2023-02-21T05:42:18;93.13;;;48.80;;
39600;SDS011;25297;44.758;11.310;2023-02-21T05:44:44;107.00;;;54.80;;
39600;SDS011;25297;44.758;11.310;2023-02-21T05:47:11;103.85;;;52.63;;
39600;SDS011;25297;44.758;11.310;2023-02-21T05:49:37;97.10;;;50.50;;
39600;SDS011;25297;44.758;11.310;2023-02-21T05:52:02;97.40;;;50.33;;
39600;SDS011;25297;44.758;11.310;2023-02-21T05:54:29;103.18;;;52.20;;
39600;SDS011;25297;44.758;11.310;2023-02-21T05:56:54;100.20;;;52.47;;
39600;SDS011;25297;44.758;11.310;2023-02-21T05:59:20;102.25;;;52.80;;
39600;SDS011;25297;44.758;11.310;2023-02-21T06:01:47;104.18;;;52.38;;
39600;SDS011;25297;44.758;11.310;2023-02-21T06:04:14;101.07;;;53.22;;
39600;SDS011;25297;44.758;11.310;2023-02-21T06:06:40;90.40;;;48.65;;
39600;SDS011;25297;44.758;11.310;2023-02-21T06:09:06;91.13;;;49.13;;
39600;SDS011;25297;44.758;11.310;2023-02-21T06:11:33;103.45;;;51.53;;
39600;SDS011;25297;44.758;11.310;2023-02-21T06:14:02;109.07;;;52.03;;
39600;SDS011;25297;44.758;11.310;2023-02-21T06:16:35;99.63;;;52.03;;
39600;SDS011;25297;44.758;11.310;2023-02-21T06:19:02;98.57;;;51.83;;
39600;SDS011;25297;44.758;11.310;2023-02-21T06:21:28;101.05;;;50.67;;
39600;SDS011;25297;44.758;11.310;2023-02-21T06:23:54;101.20;;;51.40;;
39600;SDS011;25297;44.758;11.310;2023-02-21T06:26:20;94.88;;;51.72;;
39600;SDS011;25297;44.758;11.310;2023-02-21T06:28:46;107.28;;;54.53;;
39600;SDS011;25297;44.758;11.310;2023-02-21T06:31:12;99.47;;;50.95;;
39600;SDS011;25297;44.758;11.310;2023-02-21T06:33:38;95.93;;;50.80;;
39600;SDS011;25297;44.758;11.310;2023-02-21T06:36:05;107.82;;;54.90;;
39600;SDS011;25297;44.758;11.310;2023-02-21T06:38:33;103.57;;;52.53;;
39600;SDS011;25297;44.758;11.310;2023-02-21T06:40:59;88.03;;;50.15;;
39600;SDS011;25297;44.758;11.310;2023-02-21T06:43:25;103.68;;;51.45;;
39600;SDS011;25297;44.758;11.310;2023-02-21T06:45:51;105.68;;;52.65;;
39600;SDS011;25297;44.758;11.310;2023-02-21T06:48:16;99.10;;;51.28;;
39600;SDS011;25297;44.758;11.310;2023-02-21T06:50:42;96.13;;;51.15;;
39600;SDS011;25297;44.758;11.310;2023-02-21T06:53:08;92.35;;;49.28;;
39600;SDS011;25297;44.758;11.310;2023-02-21T06:55:34;98.88;;;53.33;;
39600;SDS011;25297;44.758;11.310;2023-02-21T06:57:59;99.57;;;52.30;;
39600;SDS011;25297;44.758;11.310;2023-02-21T07:00:25;99.90;;;55.88;;
39600;SDS011;25297;44.758;11.310;2023-02-21T07:02:51;102.00;;;55.05;;
39600;SDS011;25297;44.758;11.310;2023-02-21T07:05:17;107.45;;;58.17;;
39600;SDS011;25297;44.758;11.310;2023-02-21T07:07:44;108.82;;;59.25;;
39600;SDS011;25297;44.758;11.310;2023-02-21T07:10:10;105.28;;;58.50;;
39600;SDS011;25297;44.758;11.310;2023-02-21T07:12:37;109.53;;;58.28;;
39600;SDS011;25297;44.758;11.310;2023-02-21T07:15:03;105.90;;;54.20;;
39600;SDS011;25297;44.758;11.310;2023-02-21T07:17:29;101.57;;;54.05;;
39600;SDS011;25297;44.758;11.310;2023-02-21T07:19:55;101.82;;;54.38;;
39600;SDS011;25297;44.758;11.310;2023-02-21T07:22:21;103.28;;;54.10;;
39600;SDS011;25297;44.758;11.310;2023-02-21T07:27:18;102.10;;;50.08;;
39600;SDS011;25297;44.758;11.310;2023-02-21T07:29:47;102.70;;;52.13;;
39600;SDS011;25297;44.758;11.310;2023-02-21T07:32:14;103.03;;;53.33;;
39600;SDS011;25297;44.758;11.310;2023-02-21T07:34:40;103.22;;;52.08;;
39600;SDS011;25297;44.758;11.310;2023-02-21T07:37:06;102.75;;;54.15;;
39600;SDS011;25297;44.758;11.310;2023-02-21T07:39:32;98.75;;;54.92;;
39600;SDS011;25297;44.758;11.310;2023-02-21T07:41:58;106.93;;;55.85;;
39600;SDS011;25297;44.758;11.310;2023-02-21T07:44:24;105.93;;;55.08;;
39600;SDS011;25297;44.758;11.310;2023-02-21T07:46:49;107.97;;;54.05;;
39600;SDS011;25297;44.758;11.310;2023-02-21T07:49:15;106.15;;;54.13;;
39600;SDS011;25297;44.758;11.310;2023-02-21T07:51:41;107.05;;;55.80;;
39600;SDS011;25297;44.758;11.310;2023-02-21T07:54:06;109.03;;;56.83;;
39600;SDS011;25297;44.758;11.310;2023-02-21T07:56:32;110.70;;;56.10;;
39600;SDS011;25297;44.758;11.310;2023-02-21T07:58:57;113.40;;;58.72;;
39600;SDS011;25297;44.758;11.310;2023-02-21T08:01:24;104.38;;;55.78;;
39600;SDS011;25297;44.758;11.310;2023-02-21T08:03:50;103.80;;;54.85;;
39600;SDS011;25297;44.758;11.310;2023-02-21T08:06:16;101.43;;;55.40;;
39600;SDS011;25297;44.758;11.310;2023-02-21T08:08:45;111.53;;;56.75;;
39600;SDS011;25297;44.758;11.310;2023-02-21T08:11:11;104.97;;;54.88;;
39600;SDS011;25297;44.758;11.310;2023-02-21T08:13:36;113.90;;;58.25;;
39600;SDS011;25297;44.758;11.310;2023-02-21T08:16:02;105.93;;;57.40;;
39600;SDS011;25297;44.758;11.310;2023-02-21T08:18:28;128.63;;;70.28;;
39600;SDS011;25297;44.758;11.310;2023-02-21T08:20:54;120.38;;;68.78;;
39600;SDS011;25297;44.758;11.310;2023-02-21T08:23:21;112.35;;;60.85;;
39600;SDS011;25297;44.758;11.310;2023-02-21T08:25:47;110.47;;;59.03;;
39600;SDS011;25297;44.758;11.310;2023-02-21T08:28:14;107.07;;;56.05;;
39600;SDS011;25297;44.758;11.310;2023-02-21T08:30:41;110.88;;;59.88;;
39600;SDS011;25297;44.758;11.310;2023-02-21T08:33:07;109.15;;;60.10;;
39600;SDS011;25297;44.758;11.310;2023-02-21T08:35:32;102.18;;;57.83;;
39600;SDS011;25297;44.758;11.310;2023-02-21T08:37:58;114.85;;;61.00;;
39600;SDS011;25297;44.758;11.310;2023-02-21T08:40:27;110.68;;;58.10;;
39600;SDS011;25297;44.758;11.310;2023-02-21T08:42:56;110.90;;;59.50;;
39600;SDS011;25297;44.758;11.310;2023-02-21T08:45:24;112.30;;;59.05;;
39600;SDS011;25297;44.758;11.310;2023-02-21T08:47:50;113.65;;;60.40;;
39600;SDS011;25297;44.758;11.310;2023-02-21T08:50:17;118.18;;;60.95;;
39600;SDS011;25297;44.758;11.310;2023-02-21T08:52:47;113.10;;;61.63;;
39600;SDS011;25297;44.758;11.310;2023-02-21T08:55:14;121.43;;;61.47;;
39600;SDS011;25297;44.758;11.310;2023-02-21T08:57:40;120.90;;;63.97;;
39600;SDS011;25297;44.758;11.310;2023-02-21T09:00:06;115.35;;;59.03;;
39600;SDS011;25297;44.758;11.310;2023-02-21T09:02:36;123.15;;;62.10;;
39600;SDS011;25297;44.758;11.310;2023-02-21T09:05:10;123.40;;;64.32;;
39600;SDS011;25297;44.758;11.310;2023-02-21T09:07:39;118.10;;;64.78;;
39600;SDS011;25297;44.758;11.310;2023-02-21T09:10:05;125.60;;;65.97;;
39600;SDS011;25297;44.758;11.310;2023-02-21T09:12:33;114.75;;;63.40;;
39600;SDS011;25297;44.758;11.310;2023-02-21T09:14:59;118.22;;;64.47;;
39600;SDS011;25297;44.758;11.310;2023-02-21T09:17:25;124.55;;;63.65;;
39600;SDS011;25297;44.758;11.310;2023-02-21T09:19:50;122.82;;;64.97;;
39600;SDS011;25297;44.758;11.310;2023-02-21T09:22:16;124.35;;;65.15;;
39600;SDS011;25297;44.758;11.310;2023-02-21T09:24:42;121.25;;;64.30;;
39600;SDS011;25297;44.758;11.310;2023-02-21T09:27:08;129.63;;;67.57;;
39600;SDS011;25297;44.758;11.310;2023-02-21T09:29:34;117.72;;;62.63;;
39600;SDS011;25297;44.758;11.310;2023-02-21T09:32:01;114.32;;;59.97;;
39600;SDS011;25297;44.758;11.310;2023-02-21T09:34:27;120.28;;;64.90;;
39600;SDS011;25297;44.758;11.310;2023-02-21T09:36:53;117.20;;;61.10;;
39600;SDS011;25297;44.758;11.310;2023-02-21T09:39:20;129.27;;;64.47;;
39600;SDS011;25297;44.758;11.310;2023-02-21T09:41:47;116.60;;;60.33;;
39600;SDS011;25297;44.758;11.310;2023-02-21T09:44:16;119.72;;;62.70;;
39600;SDS011;25297;44.758;11.310;2023-02-21T09:46:54;123.93;;;64.95;;
39600;SDS011;25297;44.758;11.310;2023-02-21T09:49:24;120.55;;;64.40;;
39600;SDS011;25297;44.758;11.310;2023-02-21T09:51:57;115.13;;;61.22;;
39600;SDS011;25297;44.758;11.310;2023-02-21T09:54:27;116.30;;;61.20;;
39600;SDS011;25297;44.758;11.310;2023-02-21T09:57:01;111.35;;;60.70;;
39600;SDS011;25297;44.758;11.310;2023-02-21T09:59:29;118.13;;;62.78;;
39600;SDS011;25297;44.758;11.310;2023-02-21T10:01:57;122.10;;;60.97;;
39600;SDS011;25297;44.758;11.310;2023-02-21T10:07:17;122.72;;;66.10;;
39600;SDS011;25297;44.758;11.310;2023-02-21T10:09:50;118.50;;;63.75;;
39600;SDS011;25297;44.758;11.310;2023-02-21T10:12:27;115.55;;;63.45;;
39600;SDS011;25297;44.758;11.310;2023-02-21T10:15:24;124.25;;;64.28;;
39600;SDS011;25297;44.758;11.310;2023-02-21T10:20:53;120.90;;;64.38;;
39600;SDS011;25297;44.758;11.310;2023-02-21T10:23:41;110.90;;;63.40;;
39600;SDS011;25297;44.758;11.310;2023-02-21T10:26:12;112.70;;;62.50;;
39600;SDS011;25297;44.758;11.310;2023-02-21T10:31:10;112.40;;;59.05;;
39600;SDS011;25297;44.758;11.310;2023-02-21T10:34:00;113.72;;;62.28;;
39600;SDS011;25297;44.758;11.310;2023-02-21T10:36:29;128.63;;;67.30;;
39600;SDS011;25297;44.758;11.310;2023-02-21T10:39:12;116.38;;;63.60;;
39600;SDS011;25297;44.758;11.310;2023-02-21T10:41:42;117.53;;;60.83;;
39600;SDS011;25297;44.758;11.310;2023-02-21T10:44:13;122.15;;;62.75;;
39600;SDS011;25297;44.758;11.310;2023-02-21T10:46:51;115.40;;;63.33;;
39600;SDS011;25297;44.758;11.310;2023-02-21T10:49:43;115.63;;;63.85;;
39600;SDS011;25297;44.758;11.310;2023-02-21T10:52:15;119.35;;;63.22;;
39600;SDS011;25297;44.758;11.310;2023-02-21T10:57:44;133.65;;;67.78;;
39600;SDS011;25297;44.758;11.310;2023-02-21T11:02:50;123.22;;;65.68;;
39600;SDS011;25297;44.758;11.310;2023-02-21T11:05:26;126.95;;;64.18;;
39600;SDS011;25297;44.758;11.310;2023-02-21T11:10:25;116.80;;;64.60;;
39600;SDS011;25297;44.758;11.310;2023-02-21T11:13:04;132.55;;;68.82;;
39600;SDS011;25297;44.758;11.310;2023-02-21T11:15:30;130.07;;;69.25;;
39600;SDS011;25297;44.758;11.310;2023-02-21T11:18:10;125.18;;;70.32;;
39600;SDS011;25297;44.758;11.310;2023-02-21T11:20:39;119.78;;;65.82;;
39600;SDS011;25297;44.758;11.310;2023-02-21T11:23:04;132.15;;;66.93;;
39600;SDS011;25297;44.758;11.310;2023-02-21T11:25:45;121.78;;;66.18;;
39600;SDS011;25297;44.758;11.310;2023-02-21T11:33:25;147.48;;;75.50;;
39600;SDS011;25297;44.758;11.310;2023-02-21T11:35:52;146.93;;;79.45;;
39600;SDS011;25297;44.758;11.310;2023-02-21T11:38:35;144.43;;;76.93;;
39600;SDS011;25297;44.758;11.310;2023-02-21T11:41:03;148.27;;;75.93;;
39600;SDS011;25297;44.758;11.310;2023-02-21T11:44:00;134.00;;;70.05;;
39600;SDS011;25297;44.758;11.310;2023-02-21T11:46:34;129.07;;;68.07;;
39600;SDS011;25297;44.758;11.310;2023-02-21T11:52:42;130.52;;;65.80;;
39600;SDS011;25297;44.758;11.310;2023-02-21T11:55:02;128.05;;;65.20;;
39600;SDS011;25297;44.758;11.310;2023-02-21T12:13:53;123.40;;;64.95;;
39600;SDS011;25297;44.758;11.310;2023-02-21T12:42:41;124.47;;;66.55;;
39600;SDS011;25297;44.758;11.310;2023-02-21T12:47:54;122.50;;;65.78;;
39600;SDS011;25297;44.758;11.310;2023-02-21T12:50:42;123.90;;;64.30;;
39600;SDS011;25297;44.758;11.310;2023-02-21T12:53:22;120.40;;;63.63;;
39600;SDS011;25297;44.758;11.310;2023-02-21T13:01:22;117.03;;;63.83;;
39600;SDS011;25297;44.758;11.310;2023-02-21T13:09:10;121.43;;;65.63;;
39600;SDS011;25297;44.758;11.310;2023-02-21T13:11:56;114.97;;;60.55;;
39600;SDS011;25297;44.758;11.310;2023-02-21T13:14:45;141.73;;;65.07;;
39600;SDS011;25297;44.758;11.310;2023-02-21T13:17:15;113.60;;;62.00;;
39600;SDS011;25297;44.758;11.310;2023-02-21T13:28:23;116.53;;;60.47;;
39600;SDS011;25297;44.758;11.310;2023-02-21T13:30:54;116.50;;;59.08;;
39600;SDS011;25297;44.758;11.310;2023-02-21T13:35:55;104.57;;;56.97;;
39600;SDS011;25297;44.758;11.310;2023-02-21T13:38:24;109.50;;;57.47;;
39600;SDS011;25297;44.758;11.310;2023-02-21T13:41:03;107.72;;;57.95;;
39600;SDS011;25297;44.758;11.310;2023-02-21T13:43:34;105.85;;;58.13;;
39600;SDS011;25297;44.758;11.310;2023-02-21T14:05:21;108.03;;;57.33;;
39600;SDS011;25297;44.758;11.310;2023-02-21T14:13:16;87.77;;;49.07;;
39600;SDS011;25297;44.758;11.310;2023-02-21T14:15:46;83.93;;;48.10;;
39600;SDS011;25297;44.758;11.310;2023-02-21T14:18:16;88.78;;;44.95;;
39600;SDS011;25297;44.758;11.310;2023-02-21T14:20:50;80.78;;;42.83;;
39600;SDS011;25297;44.758;11.310;2023-02-21T14:23:20;74.32;;;42.50;;
39600;SDS011;25297;44.758;11.310;2023-02-21T14:25:55;72.28;;;41.58;;
39600;SDS011;25297;44.758;11.310;2023-02-21T14:34:11;80.28;;;44.88;;
39600;SDS011;25297;44.758;11.310;2023-02-21T14:36:38;74.72;;;43.75;;
39600;SDS011;25297;44.758;11.310;2023-02-21T14:39:05;82.07;;;44.67;;
39600;SDS011;25297;44.758;11.310;2023-02-21T14:47:14;80.85;;;44.85;;
39600;SDS011;25297;44.758;11.310;2023-02-21T14:52:40;77.97;;;44.45;;
39600;SDS011;25297;44.758;11.310;2023-02-21T15:04:07;67.63;;;39.22;;
39600;SDS011;25297;44.758;11.310;2023-02-21T15:06:39;77.78;;;43.10;;
39600;SDS011;25297;44.758;11.310;2023-02-21T15:09:16;73.30;;;40.53;;
39600;SDS011;25297;44.758;11.310;2023-02-21T15:11:43;76.60;;;41.10;;
39600;SDS011;25297;44.758;11.310;2023-02-21T15:16:49;73.32;;;43.35;;
39600;SDS011;25297;44.758;11.310;2023-02-21T15:19:34;79.03;;;44.05;;
39600;SDS011;25297;44.758;11.310;2023-02-21T15:27:36;68.25;;;37.58;;
39600;SDS011;25297;44.758;11.310;2023-02-21T15:30:17;69.63;;;39.10;;
39600;SDS011;25297;44.758;11.310;2023-02-21T15:33:10;71.47;;;41.72;;
39600;SDS011;25297;44.758;11.310;2023-02-21T15:35:44;72.15;;;41.13;;
39600;SDS011;25297;44.758;11.310;2023-02-21T15:38:35;66.18;;;38.47;;
39600;SDS011;25297;44.758;11.310;2023-02-21T15:41:07;64.55;;;36.13;;
39600;SDS011;25297;44.758;11.310;2023-02-21T15:46:26;61.45;;;35.47;;
39600;SDS011;25297;44.758;11.310;2023-02-21T15:48:58;63.20;;;36.80;;
39600;SDS011;25297;44.758;11.310;2023-02-21T15:51:26;65.65;;;37.05;;
39600;SDS011;25297;44.758;11.310;2023-02-21T15:54:06;60.13;;;34.42;;
39600;SDS011;25297;44.758;11.310;2023-02-21T15:56:41;57.35;;;32.22;;
39600;SDS011;25297;44.758;11.310;2023-02-21T16:01:33;55.95;;;31.25;;
39600;SDS011;25297;44.758;11.310;2023-02-21T16:04:18;46.50;;;29.75;;
39600;SDS011;25297;44.758;11.310;2023-02-21T16:06:52;52.80;;;30.75;;
39600;SDS011;25297;44.758;11.310;2023-02-21T16:09:22;50.53;;;31.65;;
39600;SDS011;25297;44.758;11.310;2023-02-21T16:14:38;49.42;;;30.15;;
39600;SDS011;25297;44.758;11.310;2023-02-21T16:17:06;49.80;;;29.53;;
39600;SDS011;25297;44.758;11.310;2023-02-21T16:19:54;52.75;;;31.25;;
39600;SDS011;25297;44.758;11.310;2023-02-21T16:22:38;49.05;;;30.08;;
39600;SDS011;25297;44.758;11.310;2023-02-21T16:25:07;51.88;;;31.08;;
39600;SDS011;25297;44.758;11.310;2023-02-21T16:27:39;56.28;;;31.88;;
39600;SDS011;25297;44.758;11.310;2023-02-21T16:30:10;50.63;;;29.80;;
39600;SDS011;25297;44.758;11.310;2023-02-21T16:32:41;46.78;;;28.83;;
39600;SDS011;25297;44.758;11.310;2023-02-21T16:35:13;51.20;;;31.73;;
39600;SDS011;25297;44.758;11.310;2023-02-21T16:37:41;53.70;;;29.63;;
39600;SDS011;25297;44.758;11.310;2023-02-21T16:40:11;55.30;;;30.88;;
39600;SDS011;25297;44.758;11.310;2023-02-21T16:42:40;63.28;;;36.53;;
39600;SDS011;25297;44.758;11.310;2023-02-21T16:45:06;67.93;;;38.20;;
39600;SDS011;25297;44.758;11.310;2023-02-21T16:47:32;65.60;;;37.85;;
39600;SDS011;25297;44.758;11.310;2023-02-21T16:49:58;68.80;;;37.83;;
39600;SDS011;25297;44.758;11.310;2023-02-21T16:52:23;68.13;;;40.00;;
39600;SDS011;25297;44.758;11.310;2023-02-21T16:54:49;67.45;;;39.08;;
39600;SDS011;25297;44.758;11.310;2023-02-21T16:57:15;70.05;;;39.92;;
39600;SDS011;25297;44.758;11.310;2023-02-21T16:59:40;63.65;;;36.97;;
39600;SDS011;25297;44.758;11.310;2023-02-21T17:02:08;69.32;;;38.58;;
39600;SDS011;25297;44.758;11.310;2023-02-21T17:04:38;65.97;;;37.83;;
39600;SDS011;25297;44.758;11.310;2023-02-21T17:07:04;64.43;;;36.70;;
39600;SDS011;25297;44.758;11.310;2023-02-21T17:09:33;67.68;;;36.78;;
39600;SDS011;25297;44.758;11.310;2023-02-21T17:12:03;75.05;;;37.92;;
39600;SDS011;25297;44.758;11.310;2023-02-21T17:14:30;69.15;;;37.28;;
39600;SDS011;25297;44.758;11.310;2023-02-21T17:16:57;70.63;;;39.22;;
39600;SDS011;25297;44.758;11.310;2023-02-21T17:19:23;69.45;;;36.72;;
39600;SDS011;25297;44.758;11.310;2023-02-21T17:21:49;72.55;;;36.63;;
39600;SDS011;25297;44.758;11.310;2023-02-21T17:24:15;66.22;;;36.53;;
39600;SDS011;25297;44.758;11.310;2023-02-21T17:26:41;67.43;;;37.58;;
39600;SDS011;25297;44.758;11.310;2023-02-21T17:29:07;57.95;;;36.13;;
39600;SDS011;25297;44.758;11.310;2023-02-21T17:31:33;62.83;;;36.00;;
39600;SDS011;25297;44.758;11.310;2023-02-21T17:33:59;62.88;;;36.20;;
39600;SDS011;25297;44.758;11.310;2023-02-21T17:36:25;69.97;;;38.60;;
39600;SDS011;25297;44.758;11.310;2023-02-21T17:38:52;68.60;;;38.10;;